sensor_id;sensor_type;location;lat;lon;timestamp;pressure;altitude;pressure_sealevel;temperature;humidity
64679;BME280;51094;53.864;27.676;2022-11-06T00:00:58;99671.00;;;2.83;79.38
64679;BME280;51094;53.864;27.676;2022-11-06T00:03:29;99653.22;;;2.77;79.29
64679;BME280;51094;53.864;27.676;2022-11-06T00:05:56;99740.69;;;3.25;78.87
64679;BME280;51094;53.864;27.676;2022-11-06T00:08:41;99636.63;;;2.60;79.39
64679;BME280;51094;53.864;27.676;2022-11-06T00:11:13;99727.88;;;3.23;79.76
64679;BME280;51094;53.864;27.676;2022-11-06T00:13:41;99697.88;;;2.99;79.30
64679;BME280;51094;53.864;27.676;2022-11-06T00:16:09;99723.00;;;3.16;79.26
64679;BME280;51094;53.864;27.676;2022-11-06T00:18:37;99730.59;;;3.19;79.79
64679;BME280;51094;53.864;27.676;2022-11-06T00:21:09;99593.59;;;2.42;79.40
64679;BME280;51094;53.864;27.676;2022-11-06T00:23:37;99743.13;;;3.29;80.06
64679;BME280;51094;53.864;27.676;2022-11-06T00:26:05;99761.41;;;3.20;79.30
64679;BME280;51094;53.864;27.676;2022-11-06T00:28:33;99678.13;;;3.26;79.73
64679;BME280;51094;53.864;27.676;2022-11-06T00:31:04;99714.19;;;3.48;78.81
64679;BME280;51094;53.864;27.676;2022-11-06T00:33:32;99608.13;;;2.68;79.27
64679;BME280;51094;53.864;27.676;2022-11-06T00:36:02;99617.66;;;2.91;79.00
64679;BME280;51094;53.864;27.676;2022-11-06T00:38:29;99661.22;;;3.19;78.62
64679;BME280;51094;53.864;27.676;2022-11-06T00:41:04;99755.28;;;3.49;78.23
64679;BME280;51094;53.864;27.676;2022-11-06T00:43:32;99601.19;;;2.72;79.17
64679;BME280;51094;53.864;27.676;2022-11-06T00:46:10;99644.13;;;2.66;79.33
64679;BME280;51094;53.864;27.676;2022-11-06T00:48:38;99720.63;;;3.36;79.40
64679;BME280;51094;53.864;27.676;2022-11-06T00:51:16;99695.28;;;3.25;79.12
64679;BME280;51094;53.864;27.676;2022-11-06T00:53:44;99587.66;;;2.66;78.97
64679;BME280;51094;53.864;27.676;2022-11-06T00:56:16;99657.34;;;3.07;79.78
64679;BME280;51094;53.864;27.676;2022-11-06T00:58:43;99709.63;;;3.56;79.30
64679;BME280;51094;53.864;27.676;2022-11-06T01:03:43;99722.09;;;3.43;79.42
64679;BME280;51094;53.864;27.676;2022-11-06T01:06:13;99722.88;;;3.45;79.60
64679;BME280;51094;53.864;27.676;2022-11-06T01:08:40;99677.47;;;3.19;79.10
64679;BME280;51094;53.864;27.676;2022-11-06T01:11:22;99581.94;;;2.32;79.50
64679;BME280;51094;53.864;27.676;2022-11-06T01:13:54;99493.00;;;2.06;79.56
64679;BME280;51094;53.864;27.676;2022-11-06T01:16:22;99629.41;;;2.98;80.38
64679;BME280;51094;53.864;27.676;2022-11-06T01:18:50;99566.50;;;2.60;80.10
64679;BME280;51094;53.864;27.676;2022-11-06T01:21:23;99734.47;;;3.32;80.30
64679;BME280;51094;53.864;27.676;2022-11-06T01:23:55;99662.66;;;3.27;80.43
64679;BME280;51094;53.864;27.676;2022-11-06T01:26:23;99683.72;;;3.37;80.52
64679;BME280;51094;53.864;27.676;2022-11-06T01:29:06;99536.09;;;2.48;80.64
64679;BME280;51094;53.864;27.676;2022-11-06T01:31:34;99675.97;;;3.39;80.68
64679;BME280;51094;53.864;27.676;2022-11-06T01:34:01;99679.16;;;3.45;80.32
64679;BME280;51094;53.864;27.676;2022-11-06T01:36:29;99608.63;;;3.04;80.55
64679;BME280;51094;53.864;27.676;2022-11-06T01:38:58;99675.75;;;3.45;80.76
64679;BME280;51094;53.864;27.676;2022-11-06T01:41:35;99677.50;;;3.44;81.05
64679;BME280;51094;53.864;27.676;2022-11-06T01:47:03;99677.53;;;3.43;80.69
64679;BME280;51094;53.864;27.676;2022-11-06T01:49:36;99546.66;;;2.63;80.38
64679;BME280;51094;53.864;27.676;2022-11-06T01:52:08;99601.84;;;3.03;80.90
64679;BME280;51094;53.864;27.676;2022-11-06T01:54:38;99662.78;;;3.48;80.91
64679;BME280;51094;53.864;27.676;2022-11-06T01:57:06;99667.16;;;3.46;81.17
64679;BME280;51094;53.864;27.676;2022-11-06T01:59:35;99659.50;;;3.44;81.37
64679;BME280;51094;53.864;27.676;2022-11-06T02:02:03;99659.16;;;3.53;81.32
64679;BME280;51094;53.864;27.676;2022-11-06T02:04:36;99660.78;;;3.56;81.36
64679;BME280;51094;53.864;27.676;2022-11-06T02:07:03;99639.59;;;3.01;80.90
64679;BME280;51094;53.864;27.676;2022-11-06T02:09:32;99625.56;;;3.34;81.17
64679;BME280;51094;53.864;27.676;2022-11-06T02:28:59;99646.81;;;3.63;81.39
64679;BME280;51094;53.864;27.676;2022-11-06T02:31:30;99652.91;;;3.60;81.22
64679;BME280;51094;53.864;27.676;2022-11-06T02:34:03;99326.72;;;1.69;80.97
64679;BME280;51094;53.864;27.676;2022-11-06T02:36:39;99588.00;;;3.30;81.56
64679;BME280;51094;53.864;27.676;2022-11-06T02:39:11;99614.50;;;3.32;81.02
64679;BME280;51094;53.864;27.676;2022-11-06T02:41:43;99676.25;;;3.54;81.44
64679;BME280;51094;53.864;27.676;2022-11-06T02:44:11;99639.09;;;3.63;81.16
64679;BME280;51094;53.864;27.676;2022-11-06T02:46:47;99340.66;;;1.85;81.56
64679;BME280;51094;53.864;27.676;2022-11-06T02:49:29;99640.28;;;3.78;81.85
64679;BME280;51094;53.864;27.676;2022-11-06T02:52:02;99606.47;;;3.42;81.47
64679;BME280;51094;53.864;27.676;2022-11-06T02:54:33;99640.22;;;3.79;81.15
64679;BME280;51094;53.864;27.676;2022-11-06T02:57:07;99653.75;;;3.84;80.98
64679;BME280;51094;53.864;27.676;2022-11-06T02:59:44;99658.09;;;3.82;81.16
64679;BME280;51094;53.864;27.676;2022-11-06T03:02:35;99635.00;;;3.81;81.30
64679;BME280;51094;53.864;27.676;2022-11-06T03:05:13;99642.84;;;3.78;81.47
64679;BME280;51094;53.864;27.676;2022-11-06T03:07:49;99507.25;;;2.89;81.34
64679;BME280;51094;53.864;27.676;2022-11-06T03:10:18;99576.16;;;3.26;80.95
64679;BME280;51094;53.864;27.676;2022-11-06T03:12:56;98804.81;;;-1.43;81.48
64679;BME280;51094;53.864;27.676;2022-11-06T03:15:31;99586.78;;;3.41;81.56
64679;BME280;51094;53.864;27.676;2022-11-06T03:18:10;99639.44;;;3.77;81.80
64679;BME280;51094;53.864;27.676;2022-11-06T03:20:43;99636.81;;;3.79;81.52
64679;BME280;51094;53.864;27.676;2022-11-06T03:23:19;99637.09;;;3.71;81.83
64679;BME280;51094;53.864;27.676;2022-11-06T03:26:09;99643.19;;;3.68;82.01
64679;BME280;51094;53.864;27.676;2022-11-06T03:28:46;99509.63;;;2.95;81.61
64679;BME280;51094;53.864;27.676;2022-11-06T03:31:18;99654.19;;;3.72;81.79
64679;BME280;51094;53.864;27.676;2022-11-06T03:33:54;99636.06;;;3.75;81.83
64679;BME280;51094;53.864;27.676;2022-11-06T03:36:35;99633.28;;;3.58;82.14
64679;BME280;51094;53.864;27.676;2022-11-06T03:39:14;99633.44;;;3.77;82.07
64679;BME280;51094;53.864;27.676;2022-11-06T03:41:54;99595.69;;;3.54;81.80
64679;BME280;51094;53.864;27.676;2022-11-06T03:44:26;99639.44;;;3.77;82.44
64679;BME280;51094;53.864;27.676;2022-11-06T03:49:46;99645.34;;;3.79;82.03
64679;BME280;51094;53.864;27.676;2022-11-06T03:52:21;99615.00;;;3.65;81.83
64679;BME280;51094;53.864;27.676;2022-11-06T03:54:55;99510.78;;;3.10;81.74
64679;BME280;51094;53.864;27.676;2022-11-06T03:57:46;99551.53;;;3.44;81.58
64679;BME280;51094;53.864;27.676;2022-11-06T04:00:14;99511.66;;;3.09;81.97
64679;BME280;51094;53.864;27.676;2022-11-06T04:02:47;99549.47;;;3.06;82.08
64679;BME280;51094;53.864;27.676;2022-11-06T04:05:23;99617.84;;;3.81;81.70
64679;BME280;51094;53.864;27.676;2022-11-06T04:07:53;99540.72;;;3.34;82.28
64679;BME280;51094;53.864;27.676;2022-11-06T04:10:42;99615.94;;;3.86;82.46
64679;BME280;51094;53.864;27.676;2022-11-06T04:13:31;99617.25;;;3.96;81.81
64679;BME280;51094;53.864;27.676;2022-11-06T04:16:18;99512.78;;;3.25;82.33
64679;BME280;51094;53.864;27.676;2022-11-06T04:18:45;99607.38;;;4.08;81.71
64679;BME280;51094;53.864;27.676;2022-11-06T04:27:14;99639.50;;;3.97;82.50
64679;BME280;51094;53.864;27.676;2022-11-06T04:29:47;99607.78;;;3.97;82.45
64679;BME280;51094;53.864;27.676;2022-11-06T04:32:34;99381.88;;;2.29;82.05
64679;BME280;51094;53.864;27.676;2022-11-06T04:37:51;99612.59;;;4.06;82.05
64679;BME280;51094;53.864;27.676;2022-11-06T04:40:31;99540.34;;;3.67;82.19
64679;BME280;51094;53.864;27.676;2022-11-06T04:43:06;99607.44;;;4.06;81.91
64679;BME280;51094;53.864;27.676;2022-11-06T04:45:36;99566.50;;;3.78;82.00
64679;BME280;51094;53.864;27.676;2022-11-06T04:48:06;99496.03;;;3.39;81.94
64679;BME280;51094;53.864;27.676;2022-11-06T04:50:39;99616.56;;;3.91;82.32
64679;BME280;51094;53.864;27.676;2022-11-06T04:53:07;99575.25;;;3.96;82.09
64679;BME280;51094;53.864;27.676;2022-11-06T04:55:59;99570.94;;;3.96;82.02
64679;BME280;51094;53.864;27.676;2022-11-06T04:58:26;99546.28;;;3.69;81.59
64679;BME280;51094;53.864;27.676;2022-11-06T05:00:53;99599.91;;;4.01;82.08
64679;BME280;51094;53.864;27.676;2022-11-06T05:03:19;99608.34;;;4.05;82.01
64679;BME280;51094;53.864;27.676;2022-11-06T05:05:46;99538.69;;;3.66;82.66
64679;BME280;51094;53.864;27.676;2022-11-06T05:08:14;99601.47;;;4.06;82.34
64679;BME280;51094;53.864;27.676;2022-11-06T05:10:43;99492.44;;;3.43;82.20
64679;BME280;51094;53.864;27.676;2022-11-06T05:13:10;99563.66;;;3.86;81.86
64679;BME280;51094;53.864;27.676;2022-11-06T05:15:37;99551.69;;;3.85;82.12
64679;BME280;51094;53.864;27.676;2022-11-06T05:18:04;99601.28;;;4.10;82.17
64679;BME280;51094;53.864;27.676;2022-11-06T05:20:32;99606.19;;;4.16;82.18
64679;BME280;51094;53.864;27.676;2022-11-06T05:23:00;99602.78;;;4.16;81.83
64679;BME280;51094;53.864;27.676;2022-11-06T05:25:35;99560.06;;;3.90;82.40
64679;BME280;51094;53.864;27.676;2022-11-06T05:28:04;99606.91;;;4.20;82.03
64679;BME280;51094;53.864;27.676;2022-11-06T05:30:34;99511.47;;;3.60;82.18
64679;BME280;51094;53.864;27.676;2022-11-06T05:33:02;99525.59;;;3.72;82.35
64679;BME280;51094;53.864;27.676;2022-11-06T05:35:29;99582.84;;;3.99;82.39
64679;BME280;51094;53.864;27.676;2022-11-06T05:38:01;99540.34;;;3.67;81.99
64679;BME280;51094;53.864;27.676;2022-11-06T05:40:28;99512.53;;;3.55;82.81
64679;BME280;51094;53.864;27.676;2022-11-06T05:42:55;99307.38;;;2.32;82.00
64679;BME280;51094;53.864;27.676;2022-11-06T05:45:22;99527.50;;;3.67;82.53
64679;BME280;51094;53.864;27.676;2022-11-06T05:47:49;99567.59;;;3.94;82.34
64679;BME280;51094;53.864;27.676;2022-11-06T05:50:15;99533.25;;;3.74;82.34
64679;BME280;51094;53.864;27.676;2022-11-06T05:52:42;99491.50;;;3.45;82.03
64679;BME280;51094;53.864;27.676;2022-11-06T05:55:09;99606.25;;;4.15;82.53
64679;BME280;51094;53.864;27.676;2022-11-06T05:57:41;99500.44;;;3.57;82.75
64679;BME280;51094;53.864;27.676;2022-11-06T06:00:09;99415.09;;;3.04;82.72
64679;BME280;51094;53.864;27.676;2022-11-06T06:02:39;99602.56;;;4.22;82.82
64679;BME280;51094;53.864;27.676;2022-11-06T06:05:06;99592.38;;;4.19;82.68
64679;BME280;51094;53.864;27.676;2022-11-06T06:07:33;99603.56;;;4.18;82.68
64679;BME280;51094;53.864;27.676;2022-11-06T06:10:01;99547.38;;;3.85;82.63
64679;BME280;51094;53.864;27.676;2022-11-06T06:12:27;99521.28;;;3.73;82.10
64679;BME280;51094;53.864;27.676;2022-11-06T06:14:54;99378.72;;;2.92;82.35
64679;BME280;51094;53.864;27.676;2022-11-06T06:17:21;99605.13;;;4.22;82.30
64679;BME280;51094;53.864;27.676;2022-11-06T06:19:48;99611.16;;;4.21;82.71
64679;BME280;51094;53.864;27.676;2022-11-06T06:22:14;99606.81;;;4.23;83.11
64679;BME280;51094;53.864;27.676;2022-11-06T06:24:41;99609.13;;;4.29;82.93
64679;BME280;51094;53.864;27.676;2022-11-06T06:27:08;99596.88;;;4.34;83.33
64679;BME280;51094;53.864;27.676;2022-11-06T06:29:35;99602.88;;;4.34;82.70
64679;BME280;51094;53.864;27.676;2022-11-06T06:32:02;99600.78;;;4.44;82.38
64679;BME280;51094;53.864;27.676;2022-11-06T06:34:30;99604.56;;;4.35;82.91
64679;BME280;51094;53.864;27.676;2022-11-06T06:36:56;99607.91;;;4.38;82.70
64679;BME280;51094;53.864;27.676;2022-11-06T06:39:23;99584.88;;;4.13;82.82
64679;BME280;51094;53.864;27.676;2022-11-06T06:41:50;99614.56;;;4.43;82.85
64679;BME280;51094;53.864;27.676;2022-11-06T06:44:16;99606.72;;;4.46;83.24
64679;BME280;51094;53.864;27.676;2022-11-06T06:46:43;99335.22;;;2.88;83.22
64679;BME280;51094;53.864;27.676;2022-11-06T06:49:10;99608.84;;;4.57;83.00
64679;BME280;51094;53.864;27.676;2022-11-06T06:51:37;99610.47;;;4.59;82.48
64679;BME280;51094;53.864;27.676;2022-11-06T06:54:03;99275.13;;;2.48;82.00
64679;BME280;51094;53.864;27.676;2022-11-06T06:56:30;99607.25;;;4.54;82.86
64679;BME280;51094;53.864;27.676;2022-11-06T06:58:57;99591.25;;;4.46;82.64
64679;BME280;51094;53.864;27.676;2022-11-06T07:01:24;99608.44;;;4.67;83.16
64679;BME280;51094;53.864;27.676;2022-11-06T07:03:51;99486.28;;;3.68;82.39
64679;BME280;51094;53.864;27.676;2022-11-06T07:06:18;99587.34;;;4.58;82.20
64679;BME280;51094;53.864;27.676;2022-11-06T07:08:45;99610.59;;;4.77;82.66
64679;BME280;51094;53.864;27.676;2022-11-06T07:11:12;99605.31;;;4.80;82.44
64679;BME280;51094;53.864;27.676;2022-11-06T07:13:39;99517.44;;;4.26;82.23
64679;BME280;51094;53.864;27.676;2022-11-06T07:16:08;99582.84;;;4.63;81.84
64679;BME280;51094;53.864;27.676;2022-11-06T07:18:36;99535.81;;;4.38;82.33
64679;BME280;51094;53.864;27.676;2022-11-06T07:21:04;99611.06;;;4.86;82.51
64679;BME280;51094;53.864;27.676;2022-11-06T07:23:32;99585.44;;;4.63;81.93
64679;BME280;51094;53.864;27.676;2022-11-06T07:26:00;99489.91;;;4.07;82.52
64679;BME280;51094;53.864;27.676;2022-11-06T07:28:26;99614.88;;;4.98;82.37
64679;BME280;51094;53.864;27.676;2022-11-06T07:30:57;99590.22;;;4.72;82.57
64679;BME280;51094;53.864;27.676;2022-11-06T07:33:25;99608.38;;;5.10;81.75
64679;BME280;51094;53.864;27.676;2022-11-06T07:35:52;99614.44;;;5.09;82.37
64679;BME280;51094;53.864;27.676;2022-11-06T07:38:18;99506.47;;;4.42;81.98
64679;BME280;51094;53.864;27.676;2022-11-06T07:40:45;99580.97;;;4.87;81.59
64679;BME280;51094;53.864;27.676;2022-11-06T07:43:12;98933.47;;;0.86;81.93
64679;BME280;51094;53.864;27.676;2022-11-06T07:45:39;99590.00;;;4.97;81.98
64679;BME280;51094;53.864;27.676;2022-11-06T07:48:06;99590.91;;;5.16;82.99
64679;BME280;51094;53.864;27.676;2022-11-06T07:50:33;99599.88;;;5.26;82.22
64679;BME280;51094;53.864;27.676;2022-11-06T07:53:03;99602.59;;;5.23;82.27
64679;BME280;51094;53.864;27.676;2022-11-06T07:55:29;99601.91;;;5.20;81.45
64679;BME280;51094;53.864;27.676;2022-11-06T07:57:57;99599.41;;;5.18;82.36
64679;BME280;51094;53.864;27.676;2022-11-06T08:00:25;99571.56;;;5.06;82.50
64679;BME280;51094;53.864;27.676;2022-11-06T08:02:52;99604.06;;;5.29;82.13
64679;BME280;51094;53.864;27.676;2022-11-06T08:05:19;99488.25;;;4.46;82.13
64679;BME280;51094;53.864;27.676;2022-11-06T08:07:46;99610.13;;;5.28;81.97
64679;BME280;51094;53.864;27.676;2022-11-06T08:10:13;99606.59;;;5.30;82.08
64679;BME280;51094;53.864;27.676;2022-11-06T08:12:40;99611.47;;;5.37;82.43
64679;BME280;51094;53.864;27.676;2022-11-06T08:15:06;99612.38;;;5.35;81.46
64679;BME280;51094;53.864;27.676;2022-11-06T08:17:33;99588.72;;;5.26;82.19
64679;BME280;51094;53.864;27.676;2022-11-06T08:20:00;99604.81;;;5.51;82.02
64679;BME280;51094;53.864;27.676;2022-11-06T08:22:27;99608.81;;;5.58;82.34
64679;BME280;51094;53.864;27.676;2022-11-06T08:24:53;99611.25;;;5.61;81.74
64679;BME280;51094;53.864;27.676;2022-11-06T08:27:20;99586.81;;;5.50;82.09
64679;BME280;51094;53.864;27.676;2022-11-06T08:29:47;99595.19;;;5.55;82.14
64679;BME280;51094;53.864;27.676;2022-11-06T08:32:14;99554.31;;;5.27;81.33
64679;BME280;51094;53.864;27.676;2022-11-06T08:34:40;99606.81;;;5.63;81.73
64679;BME280;51094;53.864;27.676;2022-11-06T08:37:08;99597.72;;;5.56;81.51
64679;BME280;51094;53.864;27.676;2022-11-06T08:39:35;99558.38;;;5.32;81.87
64679;BME280;51094;53.864;27.676;2022-11-06T08:42:03;99605.03;;;5.84;82.33
64679;BME280;51094;53.864;27.676;2022-11-06T08:44:30;99549.81;;;5.51;81.63
64679;BME280;51094;53.864;27.676;2022-11-06T08:46:57;99431.19;;;4.76;81.11
64679;BME280;51094;53.864;27.676;2022-11-06T08:49:24;99508.94;;;5.23;81.83
64679;BME280;51094;53.864;27.676;2022-11-06T08:51:50;99489.72;;;5.11;81.31
64679;BME280;51094;53.864;27.676;2022-11-06T08:54:17;99614.31;;;5.88;81.38
64679;BME280;51094;53.864;27.676;2022-11-06T08:56:44;99621.03;;;5.92;82.23
64679;BME280;51094;53.864;27.676;2022-11-06T08:59:10;99476.78;;;5.13;81.68
64679;BME280;51094;53.864;27.676;2022-11-06T09:01:37;99452.09;;;5.07;81.68
64679;BME280;51094;53.864;27.676;2022-11-06T09:04:04;99595.22;;;5.92;81.06
64679;BME280;51094;53.864;27.676;2022-11-06T09:06:31;99613.47;;;6.07;81.58
64679;BME280;51094;53.864;27.676;2022-11-06T09:08:58;99605.66;;;6.08;81.17
64679;BME280;51094;53.864;27.676;2022-11-06T09:11:26;99603.38;;;6.02;81.71
64679;BME280;51094;53.864;27.676;2022-11-06T09:13:53;99606.88;;;6.01;81.67
64679;BME280;51094;53.864;27.676;2022-11-06T09:16:20;99393.88;;;4.65;81.41
64679;BME280;51094;53.864;27.676;2022-11-06T09:18:46;99606.19;;;5.97;81.60
64679;BME280;51094;53.864;27.676;2022-11-06T09:21:13;99527.50;;;5.50;81.97
64679;BME280;51094;53.864;27.676;2022-11-06T09:23:40;99532.25;;;5.59;81.57
64679;BME280;51094;53.864;27.676;2022-11-06T09:26:06;99504.28;;;5.50;81.91
64679;BME280;51094;53.864;27.676;2022-11-06T09:28:33;99384.25;;;4.88;81.83
64679;BME280;51094;53.864;27.676;2022-11-06T09:31:00;99574.00;;;6.05;81.96
64679;BME280;51094;53.864;27.676;2022-11-06T09:33:27;99291.16;;;4.39;82.01
64679;BME280;51094;53.864;27.676;2022-11-06T09:35:54;99609.31;;;6.40;81.96
64679;BME280;51094;53.864;27.676;2022-11-06T09:38:21;99513.66;;;5.88;81.54
64679;BME280;51094;53.864;27.676;2022-11-06T09:40:50;99472.78;;;5.62;81.39
64679;BME280;51094;53.864;27.676;2022-11-06T09:48:44;99290.47;;;4.54;80.89
64679;BME280;51094;53.864;27.676;2022-11-06T09:51:34;99601.53;;;6.23;81.57
64679;BME280;51094;53.864;27.676;2022-11-06T09:54:10;99601.72;;;6.37;81.72
64679;BME280;51094;53.864;27.676;2022-11-06T09:56:40;99611.97;;;6.39;81.70
64679;BME280;51094;53.864;27.676;2022-11-06T09:59:11;99601.50;;;6.42;81.88
64679;BME280;51094;53.864;27.676;2022-11-06T10:01:43;99596.19;;;6.45;82.06
64679;BME280;51094;53.864;27.676;2022-11-06T10:04:22;99616.78;;;6.46;81.85
64679;BME280;51094;53.864;27.676;2022-11-06T10:06:51;99590.03;;;6.47;81.95
64679;BME280;51094;53.864;27.676;2022-11-06T10:09:18;99565.84;;;6.31;82.14
64679;BME280;51094;53.864;27.676;2022-11-06T10:12:01;99594.44;;;6.62;82.29
64679;BME280;51094;53.864;27.676;2022-11-06T10:14:46;99589.41;;;6.77;82.15
64679;BME280;51094;53.864;27.676;2022-11-06T10:17:34;99578.16;;;6.78;82.22
64679;BME280;51094;53.864;27.676;2022-11-06T10:20:11;99560.38;;;6.72;81.81
64679;BME280;51094;53.864;27.676;2022-11-06T10:23:11;99494.22;;;6.34;81.14
64679;BME280;51094;53.864;27.676;2022-11-06T10:28:40;99566.91;;;6.79;81.71
64679;BME280;51094;53.864;27.676;2022-11-06T10:31:31;99588.75;;;6.90;81.50
64679;BME280;51094;53.864;27.676;2022-11-06T10:34:10;99545.72;;;6.72;81.50
64679;BME280;51094;53.864;27.676;2022-11-06T10:36:59;99581.47;;;6.97;81.36
64679;BME280;51094;53.864;27.676;2022-11-06T10:39:31;99578.91;;;6.97;81.83
64679;BME280;51094;53.864;27.676;2022-11-06T10:42:05;99516.84;;;6.64;81.80
64679;BME280;51094;53.864;27.676;2022-11-06T10:44:45;99539.41;;;6.60;81.54
64679;BME280;51094;53.864;27.676;2022-11-06T10:47:21;99614.94;;;7.17;81.74
64679;BME280;51094;53.864;27.676;2022-11-06T10:49:57;99557.75;;;7.06;81.46
64679;BME280;51094;53.864;27.676;2022-11-06T10:55:53;99560.81;;;7.30;81.49
64679;BME280;51094;53.864;27.676;2022-11-06T10:58:29;99561.31;;;7.37;81.50
64679;BME280;51094;53.864;27.676;2022-11-06T11:01:01;99574.47;;;7.16;81.46
64679;BME280;51094;53.864;27.676;2022-11-06T11:03:32;99433.47;;;6.60;81.60
64679;BME280;51094;53.864;27.676;2022-11-06T11:06:00;99431.13;;;6.56;81.82
64679;BME280;51094;53.864;27.676;2022-11-06T11:11:00;99437.69;;;6.79;81.46
64679;BME280;51094;53.864;27.676;2022-11-06T11:13:31;99565.19;;;7.61;81.19
64679;BME280;51094;53.864;27.676;2022-11-06T11:16:01;99563.38;;;7.63;81.18
64679;BME280;51094;53.864;27.676;2022-11-06T11:18:28;99534.97;;;7.46;81.40
64679;BME280;51094;53.864;27.676;2022-11-06T11:24:10;99573.47;;;7.83;81.49
64679;BME280;51094;53.864;27.676;2022-11-06T11:26:51;99473.03;;;7.27;81.40
64679;BME280;51094;53.864;27.676;2022-11-06T11:29:25;99572.81;;;7.95;81.17
64679;BME280;51094;53.864;27.676;2022-11-06T11:31:55;99656.41;;;7.97;81.05
64679;BME280;51094;53.864;27.676;2022-11-06T11:34:27;99438.41;;;7.14;80.10
64679;BME280;51094;53.864;27.676;2022-11-06T11:39:40;99567.94;;;7.89;81.17
64679;BME280;51094;53.864;27.676;2022-11-06T11:44:45;99579.31;;;7.87;81.09
64679;BME280;51094;53.864;27.676;2022-11-06T11:47:21;99575.13;;;7.84;80.66
64679;BME280;51094;53.864;27.676;2022-11-06T11:49:48;99466.69;;;7.17;80.57
64679;BME280;51094;53.864;27.676;2022-11-06T11:52:19;99556.78;;;7.73;81.24
64679;BME280;51094;53.864;27.676;2022-11-06T11:54:49;99572.97;;;7.92;81.47
64679;BME280;51094;53.864;27.676;2022-11-06T11:57:20;99573.63;;;7.80;81.07
64679;BME280;51094;53.864;27.676;2022-11-06T11:59:58;99567.78;;;7.92;81.60
64679;BME280;51094;53.864;27.676;2022-11-06T12:02:41;99394.03;;;6.90;81.49
64679;BME280;51094;53.864;27.676;2022-11-06T12:05:14;99565.69;;;7.99;81.29
64679;BME280;51094;53.864;27.676;2022-11-06T12:07:46;99588.09;;;8.00;81.05
64679;BME280;51094;53.864;27.676;2022-11-06T12:10:34;99583.00;;;7.98;81.50
64679;BME280;51094;53.864;27.676;2022-11-06T12:13:04;99576.81;;;8.01;81.82
64679;BME280;51094;53.864;27.676;2022-11-06T12:15:57;99573.97;;;8.06;81.89
64679;BME280;51094;53.864;27.676;2022-11-06T12:18:30;99580.41;;;8.14;81.57
64679;BME280;51094;53.864;27.676;2022-11-06T12:23:46;99600.78;;;8.05;81.66
64679;BME280;51094;53.864;27.676;2022-11-06T12:29:10;99612.06;;;8.04;81.42
64679;BME280;51094;53.864;27.676;2022-11-06T12:31:46;99652.16;;;7.96;81.55
64679;BME280;51094;53.864;27.676;2022-11-06T12:34:30;99553.59;;;7.84;81.03
64679;BME280;51094;53.864;27.676;2022-11-06T12:37:19;99597.78;;;8.12;81.33
64679;BME280;51094;53.864;27.676;2022-11-06T12:39:54;99536.75;;;7.77;81.23
64679;BME280;51094;53.864;27.676;2022-11-06T12:42:27;99529.91;;;7.76;81.69
64679;BME280;51094;53.864;27.676;2022-11-06T12:44:55;99526.31;;;7.78;81.63
64679;BME280;51094;53.864;27.676;2022-11-06T12:50:22;99574.06;;;7.88;81.48
64679;BME280;51094;53.864;27.676;2022-11-06T12:53:43;99598.75;;;8.25;81.53
64679;BME280;51094;53.864;27.676;2022-11-06T13:00:58;99584.50;;;8.18;81.94
64679;BME280;51094;53.864;27.676;2022-11-06T13:07:00;99531.81;;;7.72;81.79
64679;BME280;51094;53.864;27.676;2022-11-06T13:12:35;99493.22;;;7.52;81.19
64679;BME280;51094;53.864;27.676;2022-11-06T13:17:59;99593.47;;;8.27;81.51
64679;BME280;51094;53.864;27.676;2022-11-06T13:20:44;99599.50;;;8.27;81.57
64679;BME280;51094;53.864;27.676;2022-11-06T13:26:12;99596.66;;;8.32;81.79
64679;BME280;51094;53.864;27.676;2022-11-06T13:28:44;99382.00;;;6.89;81.55
64679;BME280;51094;53.864;27.676;2022-11-06T13:31:14;99604.69;;;8.27;81.42
64679;BME280;51094;53.864;27.676;2022-11-06T13:33:53;99626.41;;;8.25;81.21
64679;BME280;51094;53.864;27.676;2022-11-06T13:36:25;99640.13;;;8.27;81.05
64679;BME280;51094;53.864;27.676;2022-11-06T13:39:14;99551.75;;;7.86;81.69
64679;BME280;51094;53.864;27.676;2022-11-06T13:41:43;99606.22;;;8.16;81.15
64679;BME280;51094;53.864;27.676;2022-11-06T13:44:10;99490.00;;;7.32;81.90
64679;BME280;51094;53.864;27.676;2022-11-06T13:46:57;99550.84;;;7.71;82.06
64679;BME280;51094;53.864;27.676;2022-11-06T13:49:37;99612.91;;;8.04;82.31
64679;BME280;51094;53.864;27.676;2022-11-06T13:52:15;99593.69;;;7.92;82.07
64679;BME280;51094;53.864;27.676;2022-11-06T13:55:13;99616.91;;;8.10;82.10
64679;BME280;51094;53.864;27.676;2022-11-06T13:57:55;99618.59;;;8.11;82.05
64679;BME280;51094;53.864;27.676;2022-11-06T14:00:50;99619.50;;;8.10;82.40
64679;BME280;51094;53.864;27.676;2022-11-06T14:03:43;99628.44;;;8.04;82.20
64679;BME280;51094;53.864;27.676;2022-11-06T14:06:23;99633.44;;;8.07;82.69
64679;BME280;51094;53.864;27.676;2022-11-06T14:09:11;99413.66;;;6.77;82.11
64679;BME280;51094;53.864;27.676;2022-11-06T14:11:43;99622.59;;;8.00;82.61
64679;BME280;51094;53.864;27.676;2022-11-06T14:14:23;99564.09;;;7.49;82.77
64679;BME280;51094;53.864;27.676;2022-11-06T14:20:05;99571.53;;;7.55;82.03
64679;BME280;51094;53.864;27.676;2022-11-06T14:22:35;99649.41;;;7.99;82.59
64679;BME280;51094;53.864;27.676;2022-11-06T14:36:34;99554.66;;;7.32;82.82
64679;BME280;51094;53.864;27.676;2022-11-06T14:39:02;99641.13;;;7.93;83.36
64679;BME280;51094;53.864;27.676;2022-11-06T14:44:23;99639.63;;;7.89;82.89
64679;BME280;51094;53.864;27.676;2022-11-06T14:46:55;99653.63;;;7.85;83.38
64679;BME280;51094;53.864;27.676;2022-11-06T14:49:40;99644.47;;;7.95;82.76
64679;BME280;51094;53.864;27.676;2022-11-06T14:52:12;99703.94;;;7.96;82.86
64679;BME280;51094;53.864;27.676;2022-11-06T14:54:49;99378.38;;;6.27;83.19
64679;BME280;51094;53.864;27.676;2022-11-06T14:57:33;99659.75;;;7.99;83.05
64679;BME280;51094;53.864;27.676;2022-11-06T15:00:00;99572.69;;;7.50;82.79
64679;BME280;51094;53.864;27.676;2022-11-06T15:02:28;99609.03;;;7.64;82.93
64679;BME280;51094;53.864;27.676;2022-11-06T15:05:00;99648.31;;;8.04;83.04